createdAt,value
2019-01-17T00:01:06.156Z,17.33
2019-01-17T00:03:29.882Z,16.40
2019-01-17T00:05:56.527Z,18.97
2019-01-17T00:08:21.212Z,14.50
2019-01-17T00:10:34.643Z,14.73
2019-01-17T00:12:58.616Z,20.30
2019-01-17T00:15:25.056Z,15.17
2019-01-17T00:17:43.299Z,16.30
2019-01-17T00:20:06.968Z,13.73
2019-01-17T00:22:28.446Z,15.37
2019-01-17T00:25:04.013Z,11.37
2019-01-17T00:27:19.617Z,12.60
2019-01-17T00:29:58.154Z,15.90
2019-01-17T00:32:24.822Z,11.93
2019-01-17T00:34:55.535Z,16.20
2019-01-17T00:37:17.875Z,11.27
2019-01-17T00:39:50.438Z,13.77
2019-01-17T00:42:20.513Z,13.27
2019-01-17T00:44:39.021Z,12.20
2019-01-17T00:47:01.351Z,11.17
2019-01-17T00:49:23.642Z,11.50
2019-01-17T00:51:45.894Z,15.23
2019-01-17T00:54:12.721Z,11.70
2019-01-17T00:56:48.540Z,12.30
2019-01-17T00:59:21.056Z,11.63
2019-01-17T01:01:43.064Z,16.47
2019-01-17T01:04:05.331Z,13.07
2019-01-17T01:06:27.631Z,11.17
2019-01-17T01:09:00.345Z,12.83
2019-01-17T01:11:41.741Z,9.83
2019-01-17T01:13:56.567Z,12.40
2019-01-17T01:16:31.853Z,8.20
2019-01-17T01:18:44.243Z,13.07
2019-01-17T01:21:07.906Z,10.17
2019-01-17T01:23:34.234Z,10.90
2019-01-17T01:26:02.963Z,12.50
2019-01-17T01:28:24.595Z,9.60
2019-01-17T01:31:01.573Z,10.63
2019-01-17T01:33:25.572Z,11.80
2019-01-17T01:36:01.378Z,11.77
2019-01-17T01:38:43.663Z,12.20
2019-01-17T01:41:16.662Z,9.60
2019-01-17T01:43:43.301Z,10.00
2019-01-17T01:46:09.802Z,13.23
2019-01-17T01:48:39.421Z,11.50
2019-01-17T01:50:58.938Z,9.60
2019-01-17T01:53:05.688Z,8.77
2019-01-17T01:55:10.927Z,10.33
2019-01-17T01:57:15.707Z,13.83
2019-01-17T01:59:21.150Z,12.70
2019-01-17T02:01:25.955Z,11.17
2019-01-17T02:03:30.846Z,11.13
2019-01-17T02:05:35.995Z,12.70
2019-01-17T02:07:40.846Z,12.20
2019-01-17T02:09:45.674Z,13.10
2019-01-17T02:11:50.680Z,12.50
2019-01-17T02:13:55.975Z,15.10
2019-01-17T02:16:00.820Z,13.30
2019-01-17T02:18:05.582Z,13.40
2019-01-17T02:20:11.036Z,15.47
2019-01-17T02:22:15.873Z,13.80
2019-01-17T02:24:21.103Z,11.90
2019-01-17T02:26:25.989Z,12.30
2019-01-17T02:28:30.729Z,13.10
2019-01-17T02:30:35.558Z,11.20
2019-01-17T02:32:40.404Z,14.10
2019-01-17T02:34:45.179Z,10.70
2019-01-17T02:36:50.264Z,13.93
2019-01-17T02:38:55.355Z,13.00
2019-01-17T02:41:00.280Z,15.63
2019-01-17T02:43:05.381Z,17.57
2019-01-17T02:45:12.370Z,22.50
2019-01-17T02:47:17.155Z,19.20
2019-01-17T02:49:21.961Z,21.50
2019-01-17T02:51:26.852Z,15.40
2019-01-17T02:53:31.703Z,18.80
2019-01-17T02:55:36.503Z,18.70
2019-01-17T02:57:41.539Z,17.20
2019-01-17T02:59:46.727Z,17.63
2019-01-17T03:01:51.479Z,19.03
2019-01-17T03:03:56.242Z,16.30
2019-01-17T03:06:01.092Z,17.23
2019-01-17T03:08:06.148Z,21.00
2019-01-17T03:10:14.272Z,19.53
2019-01-17T03:12:19.056Z,17.03
2019-01-17T03:14:24.322Z,16.13
2019-01-17T03:16:29.170Z,19.20
2019-01-17T03:18:33.924Z,15.70
2019-01-17T03:20:38.679Z,18.10
2019-01-17T03:22:43.931Z,15.50
2019-01-17T03:24:48.931Z,18.23
2019-01-17T03:26:53.932Z,17.70
2019-01-17T03:28:59.012Z,17.57
2019-01-17T03:31:04.141Z,17.17
2019-01-17T03:33:09.277Z,17.93
2019-01-17T03:35:14.141Z,19.53
2019-01-17T03:37:18.985Z,14.33
2019-01-17T03:39:23.728Z,18.60
2019-01-17T03:41:28.453Z,15.80
2019-01-17T03:43:33.209Z,16.93
2019-01-17T03:45:37.987Z,16.23
2019-01-17T03:47:44.224Z,17.33
2019-01-17T03:49:49.012Z,17.83
2019-01-17T03:51:54.473Z,18.63
2019-01-17T03:53:59.503Z,16.60
2019-01-17T03:56:04.577Z,18.67
2019-01-17T03:58:09.506Z,17.67
2019-01-17T04:00:17.663Z,17.70
2019-01-17T04:02:22.445Z,17.97
2019-01-17T04:04:27.204Z,16.37
2019-01-17T04:06:32.221Z,19.10
2019-01-17T04:08:37.330Z,21.57
2019-01-17T04:10:42.347Z,16.23
2019-01-17T04:12:47.142Z,17.23
2019-01-17T04:14:52.214Z,19.07
2019-01-17T04:16:57.290Z,16.90
2019-01-17T04:19:02.042Z,18.17
2019-01-17T04:21:06.798Z,17.20
2019-01-17T04:23:11.537Z,15.97
2019-01-17T04:25:16.454Z,16.33
2019-01-17T04:27:21.277Z,17.50
2019-01-17T04:29:26.076Z,22.10
2019-01-17T04:31:30.818Z,20.90
2019-01-17T04:33:35.561Z,17.20
2019-01-17T04:35:40.720Z,19.23
2019-01-17T04:37:45.580Z,19.63
2019-01-17T04:39:50.895Z,20.63
2019-01-17T04:41:55.677Z,16.27
2019-01-17T04:44:00.439Z,16.70
2019-01-17T04:46:05.481Z,19.60
2019-01-17T04:48:10.612Z,19.37
2019-01-17T04:50:15.780Z,21.60
2019-01-17T04:52:20.898Z,20.07
2019-01-17T04:54:26.032Z,25.53
2019-01-17T04:56:31.503Z,22.60
2019-01-17T04:58:36.258Z,20.53
2019-01-17T05:00:41.034Z,16.70
2019-01-17T05:02:46.129Z,18.90
2019-01-17T05:04:51.296Z,18.30
2019-01-17T05:06:56.033Z,18.97
2019-01-17T05:09:00.808Z,19.80
2019-01-17T05:11:05.934Z,23.60
2019-01-17T05:13:10.721Z,21.47
2019-01-17T05:15:15.736Z,25.77
2019-01-17T05:17:20.483Z,16.87
2019-01-17T05:19:25.306Z,19.27
2019-01-17T05:21:30.411Z,19.47
2019-01-17T05:23:35.519Z,18.23
2019-01-17T05:25:40.274Z,20.50
2019-01-17T05:27:45.316Z,17.53
2019-01-17T05:29:50.430Z,20.33
2019-01-17T05:31:55.231Z,23.87
2019-01-17T05:34:00.239Z,22.47
2019-01-17T05:36:05.421Z,27.70
2019-01-17T05:38:10.712Z,21.50
2019-01-17T05:40:17.624Z,26.67
2019-01-17T05:42:23.080Z,23.73
2019-01-17T05:44:28.206Z,17.97
2019-01-17T05:46:33.265Z,20.10
2019-01-17T05:48:42.623Z,20.03
2019-01-17T05:50:47.394Z,17.97
2019-01-17T05:52:52.099Z,19.47
2019-01-17T05:54:57.277Z,17.07
2019-01-17T05:57:02.196Z,19.33
2019-01-17T05:59:14.333Z,18.87
2019-01-17T06:01:19.440Z,18.87
2019-01-17T06:03:24.663Z,17.17
2019-01-17T06:05:29.444Z,18.43
2019-01-17T06:07:34.547Z,18.47
2019-01-17T06:09:39.694Z,15.20
2019-01-17T06:11:44.802Z,18.33
2019-01-17T06:13:49.645Z,17.50
2019-01-17T06:15:55.165Z,19.50
2019-01-17T06:17:59.957Z,16.60
2019-01-17T06:20:05.705Z,20.70
2019-01-17T06:22:11.630Z,19.60
2019-01-17T06:24:16.436Z,16.17
2019-01-17T06:26:21.174Z,17.10
2019-01-17T06:28:26.307Z,22.10
2019-01-17T06:30:31.291Z,24.10
2019-01-17T06:32:37.116Z,18.40
2019-01-17T06:34:41.989Z,16.03
2019-01-17T06:36:47.123Z,23.53
2019-01-17T06:38:51.889Z,18.90
2019-01-17T06:40:56.632Z,18.23
2019-01-17T06:43:01.591Z,21.10
2019-01-17T06:45:07.960Z,21.40
2019-01-17T06:47:12.916Z,20.57
2019-01-17T06:49:17.714Z,15.00
2019-01-17T06:51:22.615Z,18.70
2019-01-17T06:53:27.317Z,17.63
2019-01-17T06:55:34.570Z,17.43
2019-01-17T06:57:47.598Z,22.27
2019-01-17T06:59:52.341Z,21.70
2019-01-17T07:01:57.783Z,18.00
2019-01-17T07:04:02.459Z,30.30
2019-01-17T07:06:07.273Z,22.27
2019-01-17T07:08:12.401Z,18.43
2019-01-17T07:10:17.464Z,22.40
2019-01-17T07:12:30.618Z,26.03
2019-01-17T07:14:35.699Z,27.93
2019-01-17T07:16:40.977Z,16.93
2019-01-17T07:18:46.075Z,15.57
2019-01-17T07:20:50.831Z,15.33
2019-01-17T07:22:55.657Z,13.20
2019-01-17T07:25:00.399Z,15.70
2019-01-17T07:27:05.132Z,16.07
2019-01-17T07:29:10.114Z,22.70
2019-01-17T07:31:15.096Z,14.03
2019-01-17T07:33:19.797Z,17.40
2019-01-17T07:35:25.024Z,14.10
2019-01-17T07:37:30.121Z,21.60
2019-01-17T07:39:35.603Z,16.00
2019-01-17T07:41:40.376Z,20.03
2019-01-17T07:43:45.117Z,12.43
2019-01-17T07:45:50.991Z,19.90
2019-01-17T07:47:56.037Z,20.63
2019-01-17T07:50:01.380Z,12.53
2019-01-17T07:52:06.292Z,17.50
2019-01-17T07:54:10.982Z,18.20
2019-01-17T07:56:15.731Z,15.57
2019-01-17T07:58:20.464Z,19.30
2019-01-17T08:00:25.420Z,20.30
2019-01-17T08:02:30.530Z,18.40
2019-01-17T08:04:35.440Z,19.53
2019-01-17T08:06:40.201Z,19.10
2019-01-17T08:08:45.004Z,25.30
2019-01-17T08:10:49.784Z,18.47
2019-01-17T08:12:54.808Z,16.13
2019-01-17T08:14:59.603Z,20.10
2019-01-17T08:17:04.762Z,20.03
2019-01-17T08:19:09.659Z,15.80
2019-01-17T08:21:14.661Z,14.70
2019-01-17T08:23:19.456Z,18.20
2019-01-17T08:25:24.428Z,17.10
2019-01-17T08:27:29.540Z,21.23
2019-01-17T08:29:34.305Z,14.57
2019-01-17T08:31:39.011Z,15.83
2019-01-17T08:33:43.770Z,16.70
2019-01-17T08:35:49.430Z,14.30
2019-01-17T08:37:54.226Z,14.70
2019-01-17T08:39:59.039Z,16.87
2019-01-17T08:42:03.735Z,12.07
2019-01-17T08:44:08.774Z,17.40
2019-01-17T08:46:13.490Z,13.10
2019-01-17T08:48:18.333Z,15.93
2019-01-17T08:50:23.051Z,37.60
2019-01-17T08:52:27.866Z,12.53
2019-01-17T08:54:33.108Z,16.47
2019-01-17T08:56:38.339Z,13.90
2019-01-17T08:58:43.061Z,12.00
2019-01-17T09:00:47.939Z,14.00
2019-01-17T09:02:52.761Z,15.90
2019-01-17T09:04:58.110Z,14.87
2019-01-17T09:07:03.113Z,12.70
2019-01-17T09:09:10.339Z,14.80
2019-01-17T09:11:15.862Z,13.87
2019-01-17T09:13:20.598Z,12.63
2019-01-17T09:15:27.635Z,12.90
2019-01-17T09:17:32.376Z,12.00
2019-01-17T09:19:37.392Z,11.00
2019-01-17T09:21:42.135Z,10.03
2019-01-17T09:23:46.900Z,11.90
2019-01-17T09:25:51.669Z,7.97
2019-01-17T09:27:56.403Z,8.93
2019-01-17T09:30:01.130Z,8.90
2019-01-17T09:32:05.948Z,9.77
2019-01-17T09:34:10.681Z,11.17
2019-01-17T09:36:15.401Z,9.70
2019-01-17T09:38:20.490Z,9.93
2019-01-17T09:40:25.272Z,10.63
2019-01-17T09:42:30.086Z,8.07
2019-01-17T09:44:34.810Z,12.30
2019-01-17T09:46:39.568Z,7.97
2019-01-17T09:48:44.245Z,9.17
2019-01-17T09:50:48.978Z,10.33
2019-01-17T09:52:54.761Z,10.73
2019-01-17T09:55:00.088Z,4.70
2019-01-17T09:57:05.100Z,4.67
2019-01-17T09:59:09.835Z,7.10
2019-01-17T10:01:14.576Z,3.80
2019-01-17T10:03:19.758Z,3.37
2019-01-17T11:04:21.672Z,5.77
2019-01-17T11:07:03.512Z,7.80
2019-01-17T11:09:45.335Z,5.60
2019-01-17T11:12:43.050Z,4.83
2019-01-17T11:15:22.288Z,5.77
2019-01-17T11:18:08.390Z,5.70
2019-01-17T11:20:48.985Z,3.87
2019-01-17T11:23:29.621Z,2.70
2019-01-17T11:25:50.850Z,3.43
2019-01-17T11:28:29.571Z,3.17
2019-01-17T11:30:47.384Z,6.10
2019-01-17T11:33:18.192Z,3.83
2019-01-17T11:36:02.368Z,3.27
2019-01-17T11:38:54.097Z,7.23
2019-01-17T11:41:51.228Z,7.03
2019-01-17T11:44:58.034Z,5.70
2019-01-17T11:47:46.915Z,4.03
2019-01-17T11:50:11.477Z,9.00
2019-01-17T11:53:06.269Z,9.80
2019-01-17T11:55:29.552Z,2.47
2019-01-17T11:57:45.425Z,2.43
2019-01-17T12:00:13.925Z,2.40
2019-01-17T12:02:28.146Z,4.27
2019-01-17T12:04:32.358Z,3.53
2019-01-17T12:06:42.505Z,3.00
2019-01-17T12:08:47.175Z,3.10
2019-01-17T12:10:51.911Z,3.00
2019-01-17T12:12:57.148Z,3.57
2019-01-17T12:15:13.513Z,6.70
2019-01-17T12:17:18.233Z,4.20
2019-01-17T12:19:22.945Z,3.97
2019-01-17T12:21:27.758Z,3.80
2019-01-17T12:23:32.500Z,5.63
2019-01-17T12:25:37.226Z,3.30
2019-01-17T12:27:42.820Z,5.20
2019-01-17T12:29:47.671Z,3.03
2019-01-17T12:31:52.391Z,3.10
2019-01-17T12:33:57.132Z,2.63
2019-01-17T12:36:01.807Z,2.90
2019-01-17T12:38:06.681Z,5.33
2019-01-17T12:40:14.217Z,2.97
2019-01-17T12:42:18.940Z,3.77
2019-01-17T12:44:24.247Z,2.63
2019-01-17T12:46:28.883Z,4.97
2019-01-17T12:48:34.099Z,8.87
2019-01-17T12:50:38.913Z,5.23
2019-01-17T12:52:44.064Z,4.33
2019-01-17T12:54:48.820Z,4.13
2019-01-17T12:56:54.200Z,3.83
2019-01-17T12:58:59.139Z,6.50
2019-01-17T13:01:04.691Z,6.23
2019-01-17T13:03:09.376Z,10.03
2019-01-17T13:05:14.140Z,3.93
2019-01-17T13:07:18.981Z,2.93
2019-01-17T13:09:23.613Z,3.17
2019-01-17T13:11:28.430Z,4.17
2019-01-17T13:13:33.117Z,3.77
2019-01-17T13:15:38.211Z,3.50
2019-01-17T13:17:43.562Z,4.93
2019-01-17T13:19:48.270Z,3.80
2019-01-17T13:21:53.066Z,9.87
2019-01-17T13:23:58.134Z,4.73
2019-01-17T13:26:03.351Z,2.97
2019-01-17T13:28:08.478Z,10.53
2019-01-17T13:30:16.154Z,7.17
2019-01-17T13:32:21.188Z,6.87
2019-01-17T13:34:25.937Z,3.80
2019-01-17T13:36:33.423Z,2.77
2019-01-17T13:38:38.154Z,2.43
2019-01-17T13:40:42.921Z,3.00
2019-01-17T13:42:47.696Z,2.43
2019-01-17T13:44:55.608Z,5.53
2019-01-17T13:47:00.359Z,3.10
2019-01-17T13:49:05.504Z,2.10
2019-01-17T13:51:10.294Z,3.40
2019-01-17T13:53:15.246Z,3.43
2019-01-17T13:55:20.001Z,3.13
2019-01-17T13:57:25.102Z,6.87
2019-01-17T13:59:30.002Z,10.37
2019-01-17T14:01:34.724Z,10.17
2019-01-17T14:03:39.520Z,13.93
2019-01-17T14:05:50.844Z,7.20
2019-01-17T14:07:55.608Z,2.33
2019-01-17T14:10:01.250Z,5.03
2019-01-17T14:12:06.005Z,5.60
2019-01-17T14:14:10.762Z,3.73
2019-01-17T14:16:15.764Z,5.37
2019-01-17T14:18:20.540Z,2.93
2019-01-17T14:20:25.276Z,3.13
2019-01-17T14:22:30.195Z,4.03
2019-01-17T14:24:35.120Z,3.63
2019-01-17T14:26:39.860Z,5.13
2019-01-17T14:28:44.960Z,4.83
2019-01-17T14:30:50.214Z,4.00
2019-01-17T14:32:55.150Z,5.40
2019-01-17T14:35:00.243Z,8.03
2019-01-17T14:37:05.483Z,3.60
2019-01-17T14:39:10.481Z,4.93
2019-01-17T14:41:15.749Z,6.13
2019-01-17T14:43:20.780Z,4.50
2019-01-17T14:45:25.675Z,4.20
2019-01-17T14:47:30.522Z,6.73
2019-01-17T14:49:35.273Z,5.17
2019-01-17T14:51:40.008Z,7.43
2019-01-17T14:53:44.661Z,8.70
2019-01-17T14:55:49.369Z,11.57
2019-01-17T14:57:54.501Z,7.00
2019-01-17T14:59:59.546Z,7.70
2019-01-17T15:02:04.537Z,16.60
2019-01-17T15:04:09.401Z,14.20
2019-01-17T15:06:14.201Z,6.30
2019-01-17T15:08:19.002Z,5.13
2019-01-17T15:10:31.212Z,6.03
2019-01-17T15:12:37.185Z,8.27
2019-01-17T15:14:42.033Z,3.20
2019-01-17T15:16:46.839Z,11.00
2019-01-17T15:18:54.211Z,36.80
2019-01-17T15:20:58.929Z,6.67
2019-01-17T15:23:03.674Z,8.77
2019-01-17T15:25:08.826Z,5.63
2019-01-17T15:27:13.695Z,12.00
2019-01-17T15:29:18.617Z,14.00
2019-01-17T15:31:24.485Z,31.37
2019-01-17T15:33:29.415Z,48.83
2019-01-17T15:35:35.670Z,22.77
2019-01-17T15:37:41.780Z,27.27
2019-01-17T15:39:49.928Z,11.30
2019-01-17T15:41:55.213Z,9.50
2019-01-17T15:44:00.001Z,8.13
2019-01-17T15:46:05.465Z,8.03
2019-01-17T15:48:20.371Z,9.60
2019-01-17T15:50:25.663Z,7.00
2019-01-17T15:52:30.425Z,9.43
2019-01-17T15:54:36.711Z,10.23
2019-01-17T15:56:41.605Z,14.23
2019-01-17T15:58:47.008Z,11.00
2019-01-17T16:00:52.009Z,6.83
2019-01-17T16:02:56.967Z,42.87
2019-01-17T16:05:01.844Z,59.13
2019-01-17T16:07:07.764Z,102.67
2019-01-17T16:09:13.021Z,62.60
2019-01-17T16:11:17.734Z,42.70
2019-01-17T16:13:22.562Z,26.70
2019-01-17T16:15:28.328Z,44.03
2019-01-17T16:17:33.134Z,22.80
2019-01-17T16:19:37.975Z,8.60
2019-01-17T16:21:43.131Z,9.47
2019-01-17T16:23:48.358Z,5.17
2019-01-17T16:25:54.054Z,6.27
2019-01-17T16:27:58.823Z,7.80
2019-01-17T16:30:04.333Z,6.47
2019-01-17T16:32:09.253Z,4.20
2019-01-17T16:34:15.613Z,7.20
2019-01-17T16:36:20.357Z,12.40
2019-01-17T16:38:25.224Z,10.23
2019-01-17T16:40:30.295Z,10.47
2019-01-17T16:42:46.035Z,12.67
2019-01-17T16:44:54.519Z,10.20
2019-01-17T16:47:04.777Z,15.30
2019-01-17T16:49:10.514Z,10.33
2019-01-17T16:51:15.400Z,9.43
2019-01-17T16:53:20.794Z,6.53
2019-01-17T16:55:26.822Z,54.40
2019-01-17T16:57:36.208Z,65.80
2019-01-17T16:59:41.212Z,105.27
2019-01-17T17:01:46.039Z,96.03
2019-01-17T17:03:55.165Z,39.37
2019-01-17T17:05:57.719Z,37.73
2019-01-17T17:08:03.510Z,31.97
2019-01-17T17:10:09.544Z,14.00
2019-01-17T17:12:15.553Z,6.90
2019-01-17T17:14:20.570Z,9.90
2019-01-17T17:16:25.478Z,6.27
2019-01-17T17:18:30.635Z,5.53
2019-01-17T17:20:37.516Z,8.93
2019-01-17T17:22:44.912Z,8.40
2019-01-17T17:24:49.871Z,5.73
2019-01-17T17:27:12.008Z,3.27
2019-01-17T17:29:53.543Z,3.60
2019-01-17T17:32:00.530Z,2.80
2019-01-17T17:34:05.478Z,3.00
2019-01-17T17:36:10.260Z,3.03
2019-01-17T17:38:18.467Z,5.40
2019-01-17T17:40:25.710Z,4.90
2019-01-17T17:42:30.643Z,9.40
2019-01-17T17:44:35.698Z,9.90
2019-01-17T17:46:41.604Z,6.47
2019-01-17T17:48:46.501Z,5.40
2019-01-17T17:50:52.140Z,6.03
2019-01-17T17:52:59.303Z,4.83
2019-01-17T17:55:05.172Z,6.70
2019-01-17T17:57:11.136Z,2.90
2019-01-17T17:59:16.042Z,4.00
2019-01-17T18:01:28.553Z,4.63
2019-01-17T18:03:33.931Z,13.60
2019-01-17T18:05:39.625Z,20.30
2019-01-17T18:07:44.752Z,17.33
2019-01-17T18:09:49.617Z,37.43
2019-01-17T18:12:14.235Z,15.60
2019-01-17T18:14:19.495Z,30.13
2019-01-17T18:16:24.777Z,20.23
2019-01-17T18:18:36.574Z,35.93
2019-01-17T18:20:44.431Z,28.10
2019-01-17T18:22:50.507Z,20.43
2019-01-17T18:24:55.698Z,17.10
2019-01-17T18:27:00.605Z,22.47
2019-01-17T18:29:07.580Z,21.93
2019-01-17T18:31:12.836Z,16.30
2019-01-17T18:33:18.861Z,11.57
2019-01-17T18:35:23.825Z,8.10
2019-01-17T18:37:28.797Z,9.53
2019-01-17T18:39:33.748Z,8.83
2019-01-17T18:41:43.427Z,11.07
2019-01-17T18:43:48.249Z,10.77
2019-01-17T18:45:53.110Z,18.07
2019-01-17T18:48:04.078Z,20.90
2019-01-17T18:50:12.090Z,11.20
2019-01-17T18:52:17.392Z,11.10
2019-01-17T18:54:22.176Z,17.53
2019-01-17T18:56:27.875Z,15.70
2019-01-17T18:58:40.691Z,22.13
2019-01-17T19:00:45.680Z,17.23
2019-01-17T19:02:52.580Z,15.93
2019-01-17T19:04:58.327Z,24.77
2019-01-17T19:07:03.188Z,24.50
2019-01-17T19:09:09.193Z,13.13
2019-01-17T19:11:13.901Z,15.43
2019-01-17T19:13:18.852Z,15.27
2019-01-17T19:15:31.711Z,14.87
2019-01-17T19:17:39.300Z,16.63
2019-01-17T19:19:44.600Z,16.00
2019-01-17T19:21:49.298Z,14.07
2019-01-17T19:23:54.455Z,18.23
2019-01-17T19:25:59.279Z,14.30
2019-01-17T19:28:04.560Z,14.97
2019-01-17T19:30:12.838Z,17.33
2019-01-17T19:32:17.824Z,13.70
2019-01-17T19:34:28.892Z,13.20
2019-01-17T19:36:34.119Z,14.57
2019-01-17T19:38:39.031Z,19.30
2019-01-17T19:40:44.249Z,15.10
2019-01-17T19:42:51.041Z,16.20
2019-01-17T19:44:56.421Z,13.90
2019-01-17T19:47:01.459Z,15.40
2019-01-17T19:49:06.520Z,16.47
2019-01-17T19:51:12.028Z,18.83
2019-01-17T19:53:19.636Z,15.23
2019-01-17T19:55:25.271Z,16.63
2019-01-17T19:57:36.644Z,19.43
2019-01-17T19:59:42.557Z,15.97
2019-01-17T20:01:47.826Z,15.97
2019-01-17T20:03:53.395Z,22.07
2019-01-17T20:05:58.506Z,15.80
2019-01-17T20:08:03.759Z,19.43
2019-01-17T20:10:12.572Z,18.43
2019-01-17T20:12:18.107Z,15.30
2019-01-17T20:14:23.547Z,15.63
2019-01-17T20:16:28.960Z,16.67
2019-01-17T20:18:34.311Z,17.20
2019-01-17T20:20:39.615Z,21.70
2019-01-17T20:22:44.463Z,15.23
2019-01-17T20:24:49.586Z,13.97
2019-01-17T20:26:54.680Z,14.07
2019-01-17T20:28:59.975Z,17.30
2019-01-17T20:31:05.489Z,15.50
2019-01-17T20:33:10.660Z,15.93
2019-01-17T20:35:16.530Z,34.37
2019-01-17T20:37:21.337Z,19.47
2019-01-17T20:39:27.258Z,25.23
2019-01-17T20:41:32.021Z,22.23
2019-01-17T20:43:36.884Z,17.67
2019-01-17T20:45:41.796Z,15.47
2019-01-17T20:47:46.652Z,14.50
2019-01-17T20:49:51.437Z,15.83
2019-01-17T20:51:56.539Z,11.83
2019-01-17T20:54:01.385Z,10.63
2019-01-17T20:56:06.680Z,13.13
2019-01-17T20:58:11.541Z,16.73
2019-01-17T21:00:28.887Z,18.77
2019-01-17T21:02:33.641Z,13.70
2019-01-17T21:04:38.676Z,14.27
2019-01-17T21:06:43.558Z,10.80
2019-01-17T21:08:48.311Z,15.87
2019-01-17T21:15:15.228Z,11.00
2019-01-17T21:17:20.380Z,17.70
2019-01-17T21:19:25.125Z,10.03
2019-01-17T21:21:29.987Z,12.83
2019-01-17T21:23:36.010Z,8.73
2019-01-17T21:25:44.744Z,12.83
2019-01-17T21:27:50.319Z,7.07
2019-01-17T21:29:55.451Z,8.73
2019-01-17T21:32:01.090Z,10.47
2019-01-17T21:34:06.026Z,11.57
2019-01-17T21:36:10.845Z,8.20
2019-01-17T21:38:15.563Z,10.27
2019-01-17T21:40:21.228Z,8.00
2019-01-17T21:42:25.989Z,11.83
2019-01-17T21:44:31.385Z,12.33
2019-01-17T21:46:36.176Z,13.43
2019-01-17T21:48:40.903Z,15.00
2019-01-17T21:50:45.657Z,15.03
2019-01-17T21:52:50.599Z,17.90
2019-01-17T21:54:55.442Z,17.13
2019-01-17T21:57:00.469Z,18.13
2019-01-17T21:59:05.213Z,14.63
2019-01-17T22:01:13.249Z,18.70
2019-01-17T22:03:18.808Z,16.33
2019-01-17T22:05:23.993Z,23.43
2019-01-17T22:07:28.750Z,20.50
2019-01-17T22:09:33.616Z,16.47
2019-01-17T22:11:38.910Z,14.47
2019-01-17T22:13:43.891Z,15.53
2019-01-17T22:15:48.820Z,18.07
2019-01-17T22:17:54.244Z,22.60
2019-01-17T22:19:59.091Z,20.37
2019-01-17T22:22:04.183Z,18.47
2019-01-17T22:24:08.948Z,13.37
2019-01-17T22:26:14.030Z,19.70
2019-01-17T22:28:19.158Z,22.73
2019-01-17T22:30:25.931Z,15.70
2019-01-17T22:32:40.896Z,18.90
2019-01-17T22:34:45.646Z,28.23
2019-01-17T22:36:50.875Z,15.17
2019-01-17T22:38:55.653Z,15.03
2019-01-17T22:41:00.746Z,16.20
2019-01-17T22:43:05.606Z,12.20
2019-01-17T22:45:15.801Z,20.87
2019-01-17T22:47:21.178Z,13.80
2019-01-17T22:49:26.291Z,13.60
2019-01-17T22:51:31.423Z,13.33
2019-01-17T22:53:36.212Z,10.93
2019-01-17T22:55:40.889Z,10.10
2019-01-17T22:57:45.739Z,16.17
2019-01-17T22:59:50.865Z,13.37
2019-01-17T23:01:57.803Z,9.53
2019-01-17T23:04:05.410Z,14.70
2019-01-17T23:06:10.623Z,16.13
2019-01-17T23:08:15.846Z,16.00
2019-01-17T23:10:21.089Z,9.83
2019-01-17T23:12:26.205Z,14.63
2019-01-17T23:14:30.893Z,11.40
2019-01-17T23:16:35.699Z,16.10
2019-01-17T23:18:40.874Z,12.17
2019-01-17T23:20:45.644Z,14.20
2019-01-17T23:22:50.815Z,16.30
2019-01-17T23:24:55.601Z,8.07
2019-01-17T23:27:00.387Z,16.83
2019-01-17T23:29:05.246Z,12.60
2019-01-17T23:31:09.937Z,10.60
2019-01-17T23:33:15.085Z,17.10
2019-01-17T23:35:19.777Z,8.00
2019-01-17T23:37:24.525Z,14.80
2019-01-17T23:39:29.668Z,8.23
2019-01-17T23:41:34.545Z,12.77
2019-01-17T23:43:39.724Z,11.17
2019-01-17T23:45:44.968Z,14.30
2019-01-17T23:47:49.707Z,12.07
2019-01-17T23:49:54.917Z,11.53
2019-01-17T23:51:59.952Z,12.13
2019-01-17T23:54:04.789Z,12.57
2019-01-17T23:56:09.711Z,14.97
2019-01-17T23:58:14.480Z,8.03
